Norene, Tennessee
Current Conditions -  °F | °C
As of 12:53 PM on Thursday 18 Dec 2014 (Local Time) from KBNA Reporting Station
Overcast Overcast  
Wind Chill: 32°   Ceiling: 1300
Heat Index: 37°   Visibility: 7mi
Dew Point: 33°   Wind: 7mph
Humidity: 86%   Direction: 10°N
Pressure: 30.22"   Gusts: NA
Location:  36.06°N, 86.24°W
Report Text: KBNA 181853Z 01006KT 7SM BKN013 OVC035 03/01 A3022 RMK AO2 SLP236 T00280006
Loading
Personal Weather Stations






























Interactive Weather Map New forecast layout! Learn more

10-Day Weather Forecast

Advertisements
Track Severe Weather on mobile